NZAA/AKL METAR and TAF weather

Enter ICAO airport designator
Station Type Date Time Source
NZAA METAR 2021/03/01 21:30 UTC NOAA

NZAA 012130Z AUTO 04010KT 9999 FEW011/// SCT022/// BKN028/// 22/19 Q1010 NOSIG


Station Type Date Time Source
NZAA Decoded METAR 2021/03/01 21:30 UTC NOAA

Auckland Airport, New Zealand (NZAA) 37-01S 174-48E 6M
Mar 01, 2021 - 04:30 PM EST / 2021.03.01 2130 UTC
Wind: from the NE (040 degrees) at 12 MPH (10 KT):0
Visibility: greater than 7 mile(s):0
Sky conditions: mostly cloudy
Temperature: 71 F (22 C)
Dew Point: 66 F (19 C)
Relative Humidity: 83%
Pressure (altimeter): 29.83 in. Hg (1010 hPa)
ob: NZAA 012130Z AUTO 04010KT 9999 FEW011/// SCT022/// BKN028/// 22/19 Q1010 NOSIG
cycle: 21

Station Type Date Time Source
NZAA TAF 2021/03/01 18:06 UTC NOAA

TAF TAF NZAA 011704Z 0118/0218 02008KT 9999 -SHRA FEW020 SCT030
TEMPO 0212/0218 6000 SHRA

Example: see airport list